sensor_id;sensor_type;location;lat;lon;timestamp;temperature;humidity
20231;DHT22;10274;49.022;9.338;2024-03-22T00:00:16;6.50;1.00
20231;DHT22;10274;49.022;9.338;2024-03-22T00:02:43;6.50;1.00
20231;DHT22;10274;49.022;9.338;2024-03-22T00:05:09;6.50;1.00
20231;DHT22;10274;49.022;9.338;2024-03-22T00:07:35;6.40;1.00
20231;DHT22;10274;49.022;9.338;2024-03-22T00:10:02;6.20;1.00
20231;DHT22;10274;49.022;9.338;2024-03-22T00:12:29;6.20;1.00
20231;DHT22;10274;49.022;9.338;2024-03-22T00:14:56;6.20;1.00
20231;DHT22;10274;49.022;9.338;2024-03-22T00:17:23;6.30;1.00
20231;DHT22;10274;49.022;9.338;2024-03-22T00:19:49;6.30;1.00
20231;DHT22;10274;49.022;9.338;2024-03-22T00:22:15;6.40;1.00
20231;DHT22;10274;49.022;9.338;2024-03-22T00:24:41;6.40;1.00
20231;DHT22;10274;49.022;9.338;2024-03-22T00:27:08;6.40;1.00
20231;DHT22;10274;49.022;9.338;2024-03-22T00:29:34;6.50;1.00
20231;DHT22;10274;49.022;9.338;2024-03-22T00:32:02;6.50;1.00
20231;DHT22;10274;49.022;9.338;2024-03-22T00:34:27;6.50;1.00
20231;DHT22;10274;49.022;9.338;2024-03-22T00:36:54;6.50;1.00
20231;DHT22;10274;49.022;9.338;2024-03-22T00:39:20;6.50;1.00
20231;DHT22;10274;49.022;9.338;2024-03-22T00:41:46;6.30;1.00
20231;DHT22;10274;49.022;9.338;2024-03-22T00:44:12;6.10;1.00
20231;DHT22;10274;49.022;9.338;2024-03-22T00:46:39;6.20;1.00
20231;DHT22;10274;49.022;9.338;2024-03-22T00:49:06;6.30;1.00
20231;DHT22;10274;49.022;9.338;2024-03-22T00:51:32;6.40;1.00
20231;DHT22;10274;49.022;9.338;2024-03-22T00:53:58;6.50;1.00
20231;DHT22;10274;49.022;9.338;2024-03-22T00:56:25;6.60;1.00
20231;DHT22;10274;49.022;9.338;2024-03-22T00:58:50;6.50;1.00
20231;DHT22;10274;49.022;9.338;2024-03-22T01:01:17;6.50;1.00
20231;DHT22;10274;49.022;9.338;2024-03-22T01:03:44;6.30;1.00
20231;DHT22;10274;49.022;9.338;2024-03-22T01:06:11;5.80;1.00
20231;DHT22;10274;49.022;9.338;2024-03-22T01:08:37;5.40;1.00
20231;DHT22;10274;49.022;9.338;2024-03-22T01:11:03;5.30;1.00
20231;DHT22;10274;49.022;9.338;2024-03-22T01:13:30;5.10;1.00
20231;DHT22;10274;49.022;9.338;2024-03-22T01:15:56;5.10;1.00
20231;DHT22;10274;49.022;9.338;2024-03-22T01:18:22;5.20;1.00
20231;DHT22;10274;49.022;9.338;2024-03-22T01:20:48;5.20;1.00
20231;DHT22;10274;49.022;9.338;2024-03-22T01:23:16;5.40;1.00
20231;DHT22;10274;49.022;9.338;2024-03-22T01:25:42;5.50;1.00
20231;DHT22;10274;49.022;9.338;2024-03-22T01:28:08;5.40;1.00
20231;DHT22;10274;49.022;9.338;2024-03-22T01:30:34;5.40;1.00
20231;DHT22;10274;49.022;9.338;2024-03-22T01:33:02;5.20;1.00
20231;DHT22;10274;49.022;9.338;2024-03-22T01:35:28;5.20;1.00
20231;DHT22;10274;49.022;9.338;2024-03-22T01:37:54;5.20;1.00
20231;DHT22;10274;49.022;9.338;2024-03-22T01:40:21;5.20;1.00
20231;DHT22;10274;49.022;9.338;2024-03-22T01:42:48;5.10;1.00
20231;DHT22;10274;49.022;9.338;2024-03-22T01:45:14;4.80;1.00
20231;DHT22;10274;49.022;9.338;2024-03-22T01:47:41;4.90;1.00
20231;DHT22;10274;49.022;9.338;2024-03-22T01:50:08;5.10;1.00
20231;DHT22;10274;49.022;9.338;2024-03-22T01:52:37;5.20;1.00
20231;DHT22;10274;49.022;9.338;2024-03-22T01:55:05;5.20;1.00
20231;DHT22;10274;49.022;9.338;2024-03-22T01:57:34;5.40;1.00
20231;DHT22;10274;49.022;9.338;2024-03-22T02:00:00;5.40;1.00
20231;DHT22;10274;49.022;9.338;2024-03-22T02:02:26;4.80;1.00
20231;DHT22;10274;49.022;9.338;2024-03-22T02:04:52;4.80;1.00
20231;DHT22;10274;49.022;9.338;2024-03-22T02:07:19;4.70;1.00
20231;DHT22;10274;49.022;9.338;2024-03-22T02:09:44;4.60;1.00
20231;DHT22;10274;49.022;9.338;2024-03-22T02:12:11;4.70;1.00
20231;DHT22;10274;49.022;9.338;2024-03-22T02:14:38;4.60;1.00
20231;DHT22;10274;49.022;9.338;2024-03-22T02:17:05;4.50;1.00
20231;DHT22;10274;49.022;9.338;2024-03-22T02:19:31;4.30;1.00
20231;DHT22;10274;49.022;9.338;2024-03-22T02:21:57;4.30;1.00
20231;DHT22;10274;49.022;9.338;2024-03-22T02:24:24;4.50;1.00
20231;DHT22;10274;49.022;9.338;2024-03-22T02:26:51;4.70;1.00
20231;DHT22;10274;49.022;9.338;2024-03-22T02:29:17;4.50;1.00
20231;DHT22;10274;49.022;9.338;2024-03-22T02:31:43;4.50;1.00
20231;DHT22;10274;49.022;9.338;2024-03-22T02:34:09;4.60;1.00
20231;DHT22;10274;49.022;9.338;2024-03-22T02:36:36;4.70;1.00
20231;DHT22;10274;49.022;9.338;2024-03-22T02:39:01;4.70;1.00
20231;DHT22;10274;49.022;9.338;2024-03-22T02:41:29;4.40;1.00
20231;DHT22;10274;49.022;9.338;2024-03-22T02:43:55;4.40;1.00
20231;DHT22;10274;49.022;9.338;2024-03-22T02:46:22;4.40;1.00
20231;DHT22;10274;49.022;9.338;2024-03-22T02:48:48;4.60;1.00
20231;DHT22;10274;49.022;9.338;2024-03-22T02:51:14;4.60;1.00
20231;DHT22;10274;49.022;9.338;2024-03-22T02:53:40;4.80;1.00
20231;DHT22;10274;49.022;9.338;2024-03-22T02:56:06;4.90;1.00
20231;DHT22;10274;49.022;9.338;2024-03-22T02:58:36;4.30;1.00
20231;DHT22;10274;49.022;9.338;2024-03-22T03:01:03;4.30;1.00
20231;DHT22;10274;49.022;9.338;2024-03-22T03:03:29;4.30;1.00
20231;DHT22;10274;49.022;9.338;2024-03-22T03:05:55;4.00;1.00
20231;DHT22;10274;49.022;9.338;2024-03-22T03:08:21;4.00;1.00
20231;DHT22;10274;49.022;9.338;2024-03-22T03:10:48;4.00;1.00
20231;DHT22;10274;49.022;9.338;2024-03-22T03:13:13;4.10;1.00
20231;DHT22;10274;49.022;9.338;2024-03-22T03:15:41;4.30;1.00
20231;DHT22;10274;49.022;9.338;2024-03-22T03:18:07;4.30;1.00
20231;DHT22;10274;49.022;9.338;2024-03-22T03:20:34;4.40;1.00
20231;DHT22;10274;49.022;9.338;2024-03-22T03:22:59;4.50;1.00
20231;DHT22;10274;49.022;9.338;2024-03-22T03:25:27;4.50;1.00
20231;DHT22;10274;49.022;9.338;2024-03-22T03:27:52;4.60;1.00
20231;DHT22;10274;49.022;9.338;2024-03-22T03:30:19;4.60;1.00
20231;DHT22;10274;49.022;9.338;2024-03-22T03:32:46;4.50;1.00
20231;DHT22;10274;49.022;9.338;2024-03-22T03:35:13;4.60;1.00
20231;DHT22;10274;49.022;9.338;2024-03-22T03:37:39;4.40;1.00
20231;DHT22;10274;49.022;9.338;2024-03-22T03:40:07;4.30;1.00
20231;DHT22;10274;49.022;9.338;2024-03-22T03:42:33;4.30;1.00
20231;DHT22;10274;49.022;9.338;2024-03-22T03:44:59;4.80;1.00
20231;DHT22;10274;49.022;9.338;2024-03-22T03:47:25;4.20;1.00
20231;DHT22;10274;49.022;9.338;2024-03-22T03:49:53;4.30;1.00
20231;DHT22;10274;49.022;9.338;2024-03-22T03:52:19;4.20;1.00
20231;DHT22;10274;49.022;9.338;2024-03-22T03:54:45;4.10;1.00
20231;DHT22;10274;49.022;9.338;2024-03-22T03:57:11;4.10;1.00
20231;DHT22;10274;49.022;9.338;2024-03-22T03:59:38;4.20;1.00
20231;DHT22;10274;49.022;9.338;2024-03-22T04:02:04;4.40;1.00
20231;DHT22;10274;49.022;9.338;2024-03-22T04:04:30;4.50;1.00
20231;DHT22;10274;49.022;9.338;2024-03-22T04:06:57;4.50;1.00
20231;DHT22;10274;49.022;9.338;2024-03-22T04:09:24;4.60;1.00
20231;DHT22;10274;49.022;9.338;2024-03-22T04:11:50;4.70;1.00
20231;DHT22;10274;49.022;9.338;2024-03-22T04:14:16;4.80;1.00
20231;DHT22;10274;49.022;9.338;2024-03-22T04:16:42;4.80;1.00
20231;DHT22;10274;49.022;9.338;2024-03-22T04:19:09;4.40;1.00
20231;DHT22;10274;49.022;9.338;2024-03-22T04:21:34;4.30;1.00
20231;DHT22;10274;49.022;9.338;2024-03-22T04:24:03;4.20;1.00
20231;DHT22;10274;49.022;9.338;2024-03-22T04:26:28;4.30;1.00
20231;DHT22;10274;49.022;9.338;2024-03-22T04:28:55;4.40;1.00
20231;DHT22;10274;49.022;9.338;2024-03-22T04:31:21;4.40;1.00
20231;DHT22;10274;49.022;9.338;2024-03-22T04:33:48;4.60;1.00
20231;DHT22;10274;49.022;9.338;2024-03-22T04:36:13;4.50;1.00
20231;DHT22;10274;49.022;9.338;2024-03-22T04:38:41;4.50;1.00
20231;DHT22;10274;49.022;9.338;2024-03-22T04:41:09;4.50;1.00
20231;DHT22;10274;49.022;9.338;2024-03-22T04:43:36;4.40;1.00
20231;DHT22;10274;49.022;9.338;2024-03-22T04:46:03;4.50;1.00
20231;DHT22;10274;49.022;9.338;2024-03-22T04:48:29;4.50;1.00
20231;DHT22;10274;49.022;9.338;2024-03-22T04:50:55;4.70;1.00
20231;DHT22;10274;49.022;9.338;2024-03-22T04:53:22;4.70;1.00
20231;DHT22;10274;49.022;9.338;2024-03-22T04:55:48;4.90;1.00
20231;DHT22;10274;49.022;9.338;2024-03-22T04:58:18;5.00;1.00
20231;DHT22;10274;49.022;9.338;2024-03-22T05:00:44;5.00;1.00
20231;DHT22;10274;49.022;9.338;2024-03-22T05:03:11;5.10;1.00
20231;DHT22;10274;49.022;9.338;2024-03-22T05:05:37;5.10;1.00
20231;DHT22;10274;49.022;9.338;2024-03-22T05:08:05;5.10;1.00
20231;DHT22;10274;49.022;9.338;2024-03-22T05:10:31;5.10;1.00
20231;DHT22;10274;49.022;9.338;2024-03-22T05:12:58;5.10;1.00
20231;DHT22;10274;49.022;9.338;2024-03-22T05:15:25;5.00;1.00
20231;DHT22;10274;49.022;9.338;2024-03-22T05:17:52;5.00;1.00
20231;DHT22;10274;49.022;9.338;2024-03-22T05:20:18;5.00;1.00
20231;DHT22;10274;49.022;9.338;2024-03-22T05:22:46;5.10;1.00
20231;DHT22;10274;49.022;9.338;2024-03-22T05:25:12;5.20;1.00
20231;DHT22;10274;49.022;9.338;2024-03-22T05:27:40;5.30;1.00
20231;DHT22;10274;49.022;9.338;2024-03-22T05:30:08;5.30;1.00
20231;DHT22;10274;49.022;9.338;2024-03-22T05:32:36;5.40;1.00
20231;DHT22;10274;49.022;9.338;2024-03-22T05:35:04;5.50;1.00
20231;DHT22;10274;49.022;9.338;2024-03-22T05:37:30;5.60;1.00
20231;DHT22;10274;49.022;9.338;2024-03-22T05:39:56;5.70;1.00
20231;DHT22;10274;49.022;9.338;2024-03-22T05:42:22;5.70;1.00
20231;DHT22;10274;49.022;9.338;2024-03-22T05:44:49;5.80;1.00
20231;DHT22;10274;49.022;9.338;2024-03-22T05:47:14;5.80;1.00
20231;DHT22;10274;49.022;9.338;2024-03-22T05:49:42;5.90;1.00
20231;DHT22;10274;49.022;9.338;2024-03-22T05:52:08;6.00;1.00
20231;DHT22;10274;49.022;9.338;2024-03-22T05:54:35;6.00;1.00
20231;DHT22;10274;49.022;9.338;2024-03-22T05:57:01;6.10;1.00
20231;DHT22;10274;49.022;9.338;2024-03-22T05:59:30;6.00;1.00
20231;DHT22;10274;49.022;9.338;2024-03-22T06:01:56;5.90;1.00
20231;DHT22;10274;49.022;9.338;2024-03-22T06:04:22;6.00;1.00
20231;DHT22;10274;49.022;9.338;2024-03-22T06:06:50;6.10;1.00
20231;DHT22;10274;49.022;9.338;2024-03-22T06:09:17;6.10;1.00
20231;DHT22;10274;49.022;9.338;2024-03-22T06:11:49;6.10;1.00
20231;DHT22;10274;49.022;9.338;2024-03-22T06:14:16;6.30;1.00
20231;DHT22;10274;49.022;9.338;2024-03-22T06:16:42;6.30;1.00
20231;DHT22;10274;49.022;9.338;2024-03-22T06:19:09;6.30;1.00
20231;DHT22;10274;49.022;9.338;2024-03-22T06:21:34;6.30;1.00
20231;DHT22;10274;49.022;9.338;2024-03-22T06:24:03;6.30;1.00
20231;DHT22;10274;49.022;9.338;2024-03-22T06:26:29;6.30;1.00
20231;DHT22;10274;49.022;9.338;2024-03-22T06:28:55;6.40;1.00
20231;DHT22;10274;49.022;9.338;2024-03-22T06:31:21;6.60;1.00
20231;DHT22;10274;49.022;9.338;2024-03-22T06:33:48;6.70;1.00
20231;DHT22;10274;49.022;9.338;2024-03-22T06:36:14;6.70;1.00
20231;DHT22;10274;49.022;9.338;2024-03-22T06:38:40;6.80;1.00
20231;DHT22;10274;49.022;9.338;2024-03-22T06:41:07;6.90;1.00
20231;DHT22;10274;49.022;9.338;2024-03-22T06:43:34;7.10;1.00
20231;DHT22;10274;49.022;9.338;2024-03-22T06:46:00;7.30;1.00
20231;DHT22;10274;49.022;9.338;2024-03-22T06:48:26;7.50;1.00
20231;DHT22;10274;49.022;9.338;2024-03-22T06:50:52;7.80;1.00
20231;DHT22;10274;49.022;9.338;2024-03-22T06:53:19;8.10;1.00
20231;DHT22;10274;49.022;9.338;2024-03-22T06:55:45;8.00;1.00
20231;DHT22;10274;49.022;9.338;2024-03-22T06:58:13;8.10;1.00
20231;DHT22;10274;49.022;9.338;2024-03-22T07:00:38;8.20;1.00
20231;DHT22;10274;49.022;9.338;2024-03-22T07:03:05;8.50;1.00
20231;DHT22;10274;49.022;9.338;2024-03-22T07:05:31;8.70;1.00
20231;DHT22;10274;49.022;9.338;2024-03-22T07:07:57;8.80;1.00
20231;DHT22;10274;49.022;9.338;2024-03-22T07:10:23;9.30;1.00
20231;DHT22;10274;49.022;9.338;2024-03-22T07:12:53;9.60;1.00
20231;DHT22;10274;49.022;9.338;2024-03-22T07:15:21;9.90;1.00
20231;DHT22;10274;49.022;9.338;2024-03-22T07:17:47;10.20;1.00
20231;DHT22;10274;49.022;9.338;2024-03-22T07:20:13;10.30;1.00
20231;DHT22;10274;49.022;9.338;2024-03-22T07:22:40;10.50;1.00
20231;DHT22;10274;49.022;9.338;2024-03-22T07:25:06;10.70;1.00
20231;DHT22;10274;49.022;9.338;2024-03-22T07:27:34;11.20;1.00
20231;DHT22;10274;49.022;9.338;2024-03-22T07:30:00;11.50;1.00
20231;DHT22;10274;49.022;9.338;2024-03-22T07:32:28;11.70;1.00
20231;DHT22;10274;49.022;9.338;2024-03-22T07:34:54;12.00;1.00
20231;DHT22;10274;49.022;9.338;2024-03-22T07:37:21;12.30;1.00
20231;DHT22;10274;49.022;9.338;2024-03-22T07:39:46;12.40;1.00
20231;DHT22;10274;49.022;9.338;2024-03-22T07:42:13;12.60;1.00
20231;DHT22;10274;49.022;9.338;2024-03-22T07:44:39;12.60;1.00
20231;DHT22;10274;49.022;9.338;2024-03-22T07:47:06;12.50;1.00
20231;DHT22;10274;49.022;9.338;2024-03-22T07:49:33;12.50;1.00
20231;DHT22;10274;49.022;9.338;2024-03-22T07:52:00;13.10;1.00
20231;DHT22;10274;49.022;9.338;2024-03-22T07:54:25;13.20;1.00
20231;DHT22;10274;49.022;9.338;2024-03-22T07:56:52;13.20;1.00
20231;DHT22;10274;49.022;9.338;2024-03-22T07:59:18;13.40;1.00
20231;DHT22;10274;49.022;9.338;2024-03-22T08:01:44;13.70;1.00
20231;DHT22;10274;49.022;9.338;2024-03-22T08:04:10;13.80;1.00
20231;DHT22;10274;49.022;9.338;2024-03-22T08:06:38;13.70;1.00
20231;DHT22;10274;49.022;9.338;2024-03-22T08:09:04;13.40;1.00
20231;DHT22;10274;49.022;9.338;2024-03-22T08:11:31;13.50;1.00
20231;DHT22;10274;49.022;9.338;2024-03-22T08:13:57;13.60;1.00
20231;DHT22;10274;49.022;9.338;2024-03-22T08:16:28;13.60;1.00
20231;DHT22;10274;49.022;9.338;2024-03-22T08:18:54;13.50;1.00
20231;DHT22;10274;49.022;9.338;2024-03-22T08:21:22;13.60;1.00
20231;DHT22;10274;49.022;9.338;2024-03-22T08:23:49;13.80;1.00
20231;DHT22;10274;49.022;9.338;2024-03-22T08:26:16;14.20;1.00
20231;DHT22;10274;49.022;9.338;2024-03-22T08:28:41;14.10;1.00
20231;DHT22;10274;49.022;9.338;2024-03-22T08:31:08;14.00;1.00
20231;DHT22;10274;49.022;9.338;2024-03-22T08:33:34;14.50;1.00
20231;DHT22;10274;49.022;9.338;2024-03-22T08:36:00;14.80;1.00
20231;DHT22;10274;49.022;9.338;2024-03-22T08:38:26;15.10;1.00
20231;DHT22;10274;49.022;9.338;2024-03-22T08:40:54;15.40;1.00
20231;DHT22;10274;49.022;9.338;2024-03-22T08:43:20;15.50;1.00
20231;DHT22;10274;49.022;9.338;2024-03-22T08:45:48;15.40;1.00
20231;DHT22;10274;49.022;9.338;2024-03-22T08:48:13;15.70;1.00
20231;DHT22;10274;49.022;9.338;2024-03-22T08:50:42;15.80;1.00
20231;DHT22;10274;49.022;9.338;2024-03-22T08:53:08;15.60;1.00
20231;DHT22;10274;49.022;9.338;2024-03-22T08:55:34;15.30;1.00
20231;DHT22;10274;49.022;9.338;2024-03-22T08:58:01;15.40;1.00
20231;DHT22;10274;49.022;9.338;2024-03-22T09:00:29;15.60;1.00
20231;DHT22;10274;49.022;9.338;2024-03-22T09:02:55;15.80;1.00
20231;DHT22;10274;49.022;9.338;2024-03-22T09:05:22;15.80;1.00
20231;DHT22;10274;49.022;9.338;2024-03-22T09:07:47;16.20;1.00
20231;DHT22;10274;49.022;9.338;2024-03-22T09:10:15;17.10;1.00
20231;DHT22;10274;49.022;9.338;2024-03-22T09:12:41;16.30;1.00
20231;DHT22;10274;49.022;9.338;2024-03-22T09:15:09;16.50;1.00
20231;DHT22;10274;49.022;9.338;2024-03-22T09:17:35;16.90;1.00
20231;DHT22;10274;49.022;9.338;2024-03-22T09:20:02;17.50;1.00
20231;DHT22;10274;49.022;9.338;2024-03-22T09:22:29;17.40;1.00
20231;DHT22;10274;49.022;9.338;2024-03-22T09:24:58;17.50;1.00
20231;DHT22;10274;49.022;9.338;2024-03-22T09:27:24;17.00;1.00
20231;DHT22;10274;49.022;9.338;2024-03-22T09:29:50;17.90;1.00
20231;DHT22;10274;49.022;9.338;2024-03-22T09:32:17;17.60;1.00
20231;DHT22;10274;49.022;9.338;2024-03-22T09:34:44;17.10;1.00
20231;DHT22;10274;49.022;9.338;2024-03-22T09:37:10;17.10;1.00
20231;DHT22;10274;49.022;9.338;2024-03-22T09:39:37;16.90;1.00
20231;DHT22;10274;49.022;9.338;2024-03-22T09:42:05;17.40;1.00
20231;DHT22;10274;49.022;9.338;2024-03-22T09:44:33;17.60;1.00
20231;DHT22;10274;49.022;9.338;2024-03-22T09:46:59;17.70;1.00
20231;DHT22;10274;49.022;9.338;2024-03-22T09:49:27;17.20;1.00
20231;DHT22;10274;49.022;9.338;2024-03-22T09:51:53;18.20;1.00
20231;DHT22;10274;49.022;9.338;2024-03-22T09:54:23;17.10;1.00
20231;DHT22;10274;49.022;9.338;2024-03-22T09:56:50;17.20;1.00
20231;DHT22;10274;49.022;9.338;2024-03-22T09:59:17;16.70;1.00
20231;DHT22;10274;49.022;9.338;2024-03-22T10:01:43;17.00;1.00
20231;DHT22;10274;49.022;9.338;2024-03-22T10:04:11;16.90;1.00
20231;DHT22;10274;49.022;9.338;2024-03-22T10:06:38;16.70;1.00
20231;DHT22;10274;49.022;9.338;2024-03-22T10:09:05;16.80;1.00
20231;DHT22;10274;49.022;9.338;2024-03-22T10:11:31;17.20;1.00
20231;DHT22;10274;49.022;9.338;2024-03-22T10:14:00;17.50;1.00
20231;DHT22;10274;49.022;9.338;2024-03-22T10:16:25;17.30;1.00
20231;DHT22;10274;49.022;9.338;2024-03-22T10:18:52;17.80;1.00
20231;DHT22;10274;49.022;9.338;2024-03-22T10:21:19;17.90;1.00
20231;DHT22;10274;49.022;9.338;2024-03-22T10:23:47;17.80;1.00
20231;DHT22;10274;49.022;9.338;2024-03-22T10:26:14;17.80;1.00
20231;DHT22;10274;49.022;9.338;2024-03-22T10:28:44;17.70;1.00
20231;DHT22;10274;49.022;9.338;2024-03-22T10:31:11;17.60;1.00
20231;DHT22;10274;49.022;9.338;2024-03-22T10:33:38;17.20;1.00
20231;DHT22;10274;49.022;9.338;2024-03-22T10:36:06;17.30;1.00
20231;DHT22;10274;49.022;9.338;2024-03-22T10:38:36;17.30;1.00
20231;DHT22;10274;49.022;9.338;2024-03-22T10:41:03;17.40;1.00
20231;DHT22;10274;49.022;9.338;2024-03-22T10:43:30;17.80;1.00
20231;DHT22;10274;49.022;9.338;2024-03-22T10:46:00;17.90;1.00
20231;DHT22;10274;49.022;9.338;2024-03-22T10:48:30;17.90;1.00
20231;DHT22;10274;49.022;9.338;2024-03-22T10:50:59;18.70;1.00
20231;DHT22;10274;49.022;9.338;2024-03-22T10:53:26;18.70;1.00
20231;DHT22;10274;49.022;9.338;2024-03-22T10:55:54;18.40;1.00
20231;DHT22;10274;49.022;9.338;2024-03-22T10:58:26;18.80;1.00
20231;DHT22;10274;49.022;9.338;2024-03-22T11:00:52;19.80;1.00
20231;DHT22;10274;49.022;9.338;2024-03-22T11:03:20;19.40;1.00
20231;DHT22;10274;49.022;9.338;2024-03-22T11:05:46;19.60;1.00
20231;DHT22;10274;49.022;9.338;2024-03-22T11:08:13;19.30;1.00
20231;DHT22;10274;49.022;9.338;2024-03-22T11:10:39;19.10;1.00
20231;DHT22;10274;49.022;9.338;2024-03-22T11:13:08;18.50;1.00
20231;DHT22;10274;49.022;9.338;2024-03-22T11:15:35;18.70;1.00
20231;DHT22;10274;49.022;9.338;2024-03-22T11:18:02;19.00;1.00
20231;DHT22;10274;49.022;9.338;2024-03-22T11:20:28;19.80;1.00
20231;DHT22;10274;49.022;9.338;2024-03-22T11:22:55;19.10;1.00
20231;DHT22;10274;49.022;9.338;2024-03-22T11:25:21;19.90;1.00
20231;DHT22;10274;49.022;9.338;2024-03-22T11:27:48;19.40;1.00
20231;DHT22;10274;49.022;9.338;2024-03-22T11:30:15;20.00;1.00
20231;DHT22;10274;49.022;9.338;2024-03-22T11:32:43;20.70;1.00
20231;DHT22;10274;49.022;9.338;2024-03-22T11:35:11;20.10;1.00
20231;DHT22;10274;49.022;9.338;2024-03-22T11:37:38;20.70;1.00
20231;DHT22;10274;49.022;9.338;2024-03-22T11:40:05;20.70;1.00
20231;DHT22;10274;49.022;9.338;2024-03-22T11:42:34;20.40;1.00
20231;DHT22;10274;49.022;9.338;2024-03-22T11:45:01;20.20;1.00
20231;DHT22;10274;49.022;9.338;2024-03-22T11:47:28;20.20;1.00
20231;DHT22;10274;49.022;9.338;2024-03-22T11:49:55;21.10;1.00
20231;DHT22;10274;49.022;9.338;2024-03-22T11:52:24;22.50;1.00
20231;DHT22;10274;49.022;9.338;2024-03-22T11:54:50;21.90;99.90
20231;DHT22;10274;49.022;9.338;2024-03-22T11:57:18;20.70;99.90
20231;DHT22;10274;49.022;9.338;2024-03-22T11:59:44;19.90;99.90
20231;DHT22;10274;49.022;9.338;2024-03-22T12:02:11;19.80;1.00
20231;DHT22;10274;49.022;9.338;2024-03-22T12:04:41;20.20;1.00
20231;DHT22;10274;49.022;9.338;2024-03-22T12:07:11;20.20;99.90
20231;DHT22;10274;49.022;9.338;2024-03-22T12:09:37;19.50;1.00
20231;DHT22;10274;49.022;9.338;2024-03-22T12:12:06;19.50;1.00
20231;DHT22;10274;49.022;9.338;2024-03-22T12:14:33;19.80;1.00
20231;DHT22;10274;49.022;9.338;2024-03-22T12:17:00;19.30;1.00
20231;DHT22;10274;49.022;9.338;2024-03-22T12:19:26;19.00;1.00
20231;DHT22;10274;49.022;9.338;2024-03-22T12:21:52;19.00;99.90
20231;DHT22;10274;49.022;9.338;2024-03-22T12:24:20;18.50;99.90
20231;DHT22;10274;49.022;9.338;2024-03-22T12:26:47;18.60;99.90
20231;DHT22;10274;49.022;9.338;2024-03-22T12:31:43;18.60;1.00
20231;DHT22;10274;49.022;9.338;2024-03-22T12:34:10;18.40;99.90
20231;DHT22;10274;49.022;9.338;2024-03-22T12:36:36;18.50;99.90
20231;DHT22;10274;49.022;9.338;2024-03-22T12:39:03;18.40;99.90
20231;DHT22;10274;49.022;9.338;2024-03-22T12:41:31;18.60;99.90
20231;DHT22;10274;49.022;9.338;2024-03-22T12:43:58;18.60;1.00
20231;DHT22;10274;49.022;9.338;2024-03-22T12:46:24;18.70;99.90
20231;DHT22;10274;49.022;9.338;2024-03-22T12:48:51;18.90;99.90
20231;DHT22;10274;49.022;9.338;2024-03-22T12:51:17;18.90;99.90
20231;DHT22;10274;49.022;9.338;2024-03-22T12:53:44;19.10;99.90
20231;DHT22;10274;49.022;9.338;2024-03-22T12:56:09;18.90;99.90
20231;DHT22;10274;49.022;9.338;2024-03-22T12:58:37;18.70;99.90
20231;DHT22;10274;49.022;9.338;2024-03-22T13:01:04;18.60;99.90
20231;DHT22;10274;49.022;9.338;2024-03-22T13:03:31;18.40;99.90
20231;DHT22;10274;49.022;9.338;2024-03-22T13:05:57;18.50;99.90
20231;DHT22;10274;49.022;9.338;2024-03-22T13:08:24;18.70;99.90
20231;DHT22;10274;49.022;9.338;2024-03-22T13:10:50;19.10;99.90
20231;DHT22;10274;49.022;9.338;2024-03-22T13:13:17;18.80;99.90
20231;DHT22;10274;49.022;9.338;2024-03-22T13:15:44;19.30;99.90
20231;DHT22;10274;49.022;9.338;2024-03-22T13:18:12;19.20;99.90
20231;DHT22;10274;49.022;9.338;2024-03-22T13:20:38;19.10;99.90
20231;DHT22;10274;49.022;9.338;2024-03-22T13:23:05;18.80;99.90
20231;DHT22;10274;49.022;9.338;2024-03-22T13:25:31;19.00;99.90
20231;DHT22;10274;49.022;9.338;2024-03-22T13:27:58;19.10;99.90
20231;DHT22;10274;49.022;9.338;2024-03-22T13:30:23;19.10;99.90
20231;DHT22;10274;49.022;9.338;2024-03-22T13:32:51;19.30;99.90
20231;DHT22;10274;49.022;9.338;2024-03-22T13:35:17;19.40;99.90
20231;DHT22;10274;49.022;9.338;2024-03-22T13:37:44;19.50;99.90
20231;DHT22;10274;49.022;9.338;2024-03-22T13:40:10;19.50;99.90
20231;DHT22;10274;49.022;9.338;2024-03-22T13:42:37;19.10;99.90
20231;DHT22;10274;49.022;9.338;2024-03-22T13:45:03;18.90;99.90
20231;DHT22;10274;49.022;9.338;2024-03-22T13:47:30;19.30;99.90
20231;DHT22;10274;49.022;9.338;2024-03-22T13:49:57;19.30;99.90
20231;DHT22;10274;49.022;9.338;2024-03-22T13:52:24;19.30;99.90
20231;DHT22;10274;49.022;9.338;2024-03-22T13:54:51;19.40;99.90
20231;DHT22;10274;49.022;9.338;2024-03-22T13:57:18;19.20;99.90
20231;DHT22;10274;49.022;9.338;2024-03-22T13:59:44;19.10;99.90
20231;DHT22;10274;49.022;9.338;2024-03-22T14:02:11;19.10;99.90
20231;DHT22;10274;49.022;9.338;2024-03-22T14:04:37;19.30;99.90
20231;DHT22;10274;49.022;9.338;2024-03-22T14:07:05;19.00;99.90
20231;DHT22;10274;49.022;9.338;2024-03-22T14:09:31;19.00;99.90
20231;DHT22;10274;49.022;9.338;2024-03-22T14:11:58;18.90;99.90
20231;DHT22;10274;49.022;9.338;2024-03-22T14:14:25;19.00;99.90
20231;DHT22;10274;49.022;9.338;2024-03-22T14:16:52;19.10;99.90
20231;DHT22;10274;49.022;9.338;2024-03-22T14:19:18;18.90;99.90
20231;DHT22;10274;49.022;9.338;2024-03-22T14:21:44;18.80;99.90
20231;DHT22;10274;49.022;9.338;2024-03-22T14:24:11;18.80;99.90
20231;DHT22;10274;49.022;9.338;2024-03-22T14:26:38;18.80;99.90
20231;DHT22;10274;49.022;9.338;2024-03-22T14:29:08;18.80;99.90
20231;DHT22;10274;49.022;9.338;2024-03-22T14:31:35;18.70;99.90
20231;DHT22;10274;49.022;9.338;2024-03-22T14:34:00;18.80;99.90
20231;DHT22;10274;49.022;9.338;2024-03-22T14:36:27;18.70;99.90
20231;DHT22;10274;49.022;9.338;2024-03-22T14:38:53;18.70;99.90
20231;DHT22;10274;49.022;9.338;2024-03-22T14:41:21;18.80;99.90
20231;DHT22;10274;49.022;9.338;2024-03-22T14:43:46;18.70;99.90
20231;DHT22;10274;49.022;9.338;2024-03-22T14:46:13;18.60;99.90
20231;DHT22;10274;49.022;9.338;2024-03-22T14:48:39;18.50;99.90
20231;DHT22;10274;49.022;9.338;2024-03-22T14:51:06;18.60;99.90
20231;DHT22;10274;49.022;9.338;2024-03-22T14:53:32;18.60;99.90
20231;DHT22;10274;49.022;9.338;2024-03-22T14:56:01;18.50;99.90
20231;DHT22;10274;49.022;9.338;2024-03-22T14:58:31;18.50;99.90
20231;DHT22;10274;49.022;9.338;2024-03-22T15:00:59;18.40;99.90
20231;DHT22;10274;49.022;9.338;2024-03-22T15:03:25;18.30;99.90
20231;DHT22;10274;49.022;9.338;2024-03-22T15:05:53;17.90;99.90
20231;DHT22;10274;49.022;9.338;2024-03-22T15:08:19;18.10;99.90
20231;DHT22;10274;49.022;9.338;2024-03-22T15:10:46;18.00;99.90
20231;DHT22;10274;49.022;9.338;2024-03-22T15:13:13;17.90;99.90
20231;DHT22;10274;49.022;9.338;2024-03-22T15:15:42;17.80;99.90
20231;DHT22;10274;49.022;9.338;2024-03-22T15:18:08;17.70;99.90
20231;DHT22;10274;49.022;9.338;2024-03-22T15:20:36;17.70;99.90
20231;DHT22;10274;49.022;9.338;2024-03-22T15:23:02;17.70;99.90
20231;DHT22;10274;49.022;9.338;2024-03-22T15:25:29;17.70;99.90
20231;DHT22;10274;49.022;9.338;2024-03-22T15:27:55;17.60;99.90
20231;DHT22;10274;49.022;9.338;2024-03-22T15:30:21;17.60;99.90
20231;DHT22;10274;49.022;9.338;2024-03-22T15:32:48;17.50;99.90
20231;DHT22;10274;49.022;9.338;2024-03-22T15:35:18;17.50;99.90
20231;DHT22;10274;49.022;9.338;2024-03-22T15:37:45;17.40;99.90
20231;DHT22;10274;49.022;9.338;2024-03-22T15:40:13;17.30;99.90
20231;DHT22;10274;49.022;9.338;2024-03-22T15:42:39;17.20;1.00
20231;DHT22;10274;49.022;9.338;2024-03-22T15:45:06;17.20;1.00
20231;DHT22;10274;49.022;9.338;2024-03-22T15:47:32;17.10;1.00